createdAt,value
2019-01-30T00:00:46.195Z,81.20
2019-01-30T00:03:14.685Z,81.90
2019-01-30T00:05:43.264Z,82.30
2019-01-30T00:08:11.771Z,82.30
2019-01-30T00:10:40.252Z,82.00
2019-01-30T00:13:08.679Z,81.80
2019-01-30T00:15:37.125Z,81.90
2019-01-30T00:18:05.892Z,81.80
2019-01-30T00:20:34.402Z,82.10
2019-01-30T00:23:02.837Z,81.90
2019-01-30T00:25:31.325Z,82.10
2019-01-30T00:27:59.820Z,82.20
2019-01-30T00:30:28.378Z,81.90
2019-01-30T00:32:56.894Z,82.40
2019-01-30T00:35:25.317Z,81.90
2019-01-30T00:37:53.738Z,81.80
2019-01-30T00:40:23.980Z,82.10
2019-01-30T00:42:52.471Z,82.30
2019-01-30T00:45:21.942Z,82.40
2019-01-30T00:47:50.462Z,82.30
2019-01-30T00:50:21.091Z,82.10
2019-01-30T00:52:49.581Z,82.10
2019-01-30T00:55:18.153Z,81.70
2019-01-30T00:57:46.572Z,81.50
2019-01-30T01:00:29.126Z,80.70
2019-01-30T01:02:57.689Z,80.80
2019-01-30T01:05:26.136Z,81.40
2019-01-30T01:07:54.783Z,81.40
2019-01-30T01:10:23.349Z,82.50
2019-01-30T01:12:51.889Z,81.40
2019-01-30T01:15:20.477Z,81.80
2019-01-30T01:17:48.891Z,81.90
2019-01-30T01:20:19.156Z,81.90
2019-01-30T01:22:47.709Z,82.70
2019-01-30T01:25:19.306Z,83.40
2019-01-30T01:27:47.794Z,83.40
2019-01-30T01:30:25.321Z,82.70
2019-01-30T01:32:49.472Z,82.00
2019-01-30T01:35:17.972Z,81.70
2019-01-30T01:37:46.515Z,81.10
2019-01-30T01:40:16.370Z,80.60
2019-01-30T01:42:44.808Z,80.60
2019-01-30T01:45:18.615Z,81.10
2019-01-30T01:47:47.094Z,81.40
2019-01-30T01:50:17.493Z,81.40
2019-01-30T01:52:46.086Z,81.80
2019-01-30T01:55:14.842Z,82.10
2019-01-30T01:57:43.331Z,82.40
2019-01-30T02:00:20.312Z,82.50
2019-01-30T02:02:48.899Z,82.50
2019-01-30T02:05:19.344Z,82.30
2019-01-30T02:07:47.929Z,81.80
2019-01-30T02:10:18.485Z,81.70
2019-01-30T02:12:47.049Z,82.10
2019-01-30T02:15:20.348Z,81.90
2019-01-30T02:17:49.033Z,82.60
2019-01-30T02:20:25.905Z,82.60
2019-01-30T02:22:54.384Z,82.50
2019-01-30T02:25:22.877Z,82.80
2019-01-30T02:27:51.440Z,83.30
2019-01-30T02:30:28.225Z,83.20
2019-01-30T02:32:56.969Z,83.00
2019-01-30T02:35:25.673Z,81.80
2019-01-30T02:37:54.238Z,81.30
2019-01-30T02:40:23.791Z,80.80
2019-01-30T02:42:53.326Z,81.30
2019-01-30T02:45:26.355Z,80.90
2019-01-30T02:47:55.007Z,80.60
2019-01-30T02:50:23.683Z,81.00
2019-01-30T02:52:52.355Z,80.90
2019-01-30T02:55:20.905Z,81.20
2019-01-30T02:57:49.413Z,81.10
2019-01-30T03:00:20.388Z,81.40
2019-01-30T03:02:48.947Z,80.90
2019-01-30T03:05:17.364Z,80.50
2019-01-30T03:07:45.859Z,80.10
2019-01-30T03:10:16.932Z,80.10
2019-01-30T03:12:45.431Z,79.80
2019-01-30T03:15:16.204Z,79.40
2019-01-30T03:17:46.173Z,79.30
2019-01-30T03:20:17.684Z,79.20
2019-01-30T03:22:46.161Z,79.20
2019-01-30T03:25:16.346Z,79.10
2019-01-30T03:27:44.752Z,79.00
2019-01-30T03:30:18.674Z,79.70
2019-01-30T03:32:47.167Z,80.00
2019-01-30T03:35:15.608Z,79.90
2019-01-30T03:37:44.099Z,79.70
2019-01-30T03:40:15.300Z,79.20
2019-01-30T03:42:43.732Z,79.40
2019-01-30T03:45:14.821Z,79.20
2019-01-30T03:47:43.305Z,79.00
2019-01-30T03:50:13.386Z,79.20
2019-01-30T03:52:41.817Z,78.90
2019-01-30T03:55:12.665Z,79.30
2019-01-30T03:57:41.176Z,79.30
2019-01-30T04:00:12.711Z,79.20
2019-01-30T04:02:41.214Z,78.90
2019-01-30T04:05:09.781Z,78.70
2019-01-30T04:07:38.306Z,78.40
2019-01-30T04:10:09.784Z,78.30
2019-01-30T04:12:38.212Z,78.20
2019-01-30T04:15:09.032Z,78.40
2019-01-30T04:17:37.465Z,78.30
2019-01-30T04:20:08.970Z,78.40
2019-01-30T04:22:37.464Z,78.50
2019-01-30T04:25:07.109Z,78.50
2019-01-30T04:27:35.554Z,77.90
2019-01-30T04:30:06.084Z,77.50
2019-01-30T04:32:34.570Z,77.30
2019-01-30T04:35:02.994Z,77.30
2019-01-30T04:37:31.415Z,77.00
2019-01-30T04:39:59.877Z,77.10
2019-01-30T04:42:28.321Z,76.60
2019-01-30T04:44:56.761Z,76.60
2019-01-30T04:47:25.197Z,77.00
2019-01-30T04:49:53.629Z,76.70
2019-01-30T04:52:22.055Z,76.80
2019-01-30T04:54:50.460Z,76.70
2019-01-30T04:57:18.879Z,76.90
2019-01-30T04:59:47.312Z,76.70
2019-01-30T05:02:15.732Z,76.90
2019-01-30T05:04:44.204Z,76.60
2019-01-30T05:07:12.737Z,76.60
2019-01-30T05:09:41.277Z,76.60
2019-01-30T05:12:09.826Z,76.80
2019-01-30T05:14:38.329Z,76.80
2019-01-30T05:17:06.729Z,76.70
2019-01-30T05:19:35.158Z,76.70
2019-01-30T05:22:03.593Z,76.90
2019-01-30T05:24:32.069Z,77.00
2019-01-30T05:27:00.503Z,76.70
2019-01-30T05:29:28.912Z,76.50
2019-01-30T05:32:01.272Z,76.50
2019-01-30T05:34:27.506Z,76.30
2019-01-30T05:36:55.951Z,76.40
2019-01-30T05:39:24.384Z,76.30
2019-01-30T05:41:52.856Z,76.50
2019-01-30T05:44:21.265Z,76.80
2019-01-30T05:46:49.731Z,76.70
2019-01-30T05:49:18.125Z,76.60
2019-01-30T05:51:46.569Z,76.80
2019-01-30T05:54:14.990Z,77.00
2019-01-30T05:56:43.421Z,76.80
2019-01-30T05:59:11.839Z,77.20
2019-01-30T06:01:40.268Z,76.60
2019-01-30T06:04:08.761Z,76.80
2019-01-30T06:06:37.240Z,76.80
2019-01-30T06:09:07.101Z,76.50
2019-01-30T06:11:35.634Z,76.30
2019-01-30T06:14:04.173Z,76.20
2019-01-30T06:16:32.584Z,76.00
2019-01-30T06:19:01.028Z,76.80
2019-01-30T06:21:29.509Z,75.70
2019-01-30T06:23:57.963Z,75.60
2019-01-30T06:26:26.374Z,75.60
2019-01-30T06:28:54.818Z,75.70
2019-01-30T06:31:23.305Z,75.70
2019-01-30T06:33:51.738Z,75.30
2019-01-30T06:36:20.149Z,75.50
2019-01-30T06:38:48.588Z,75.50
2019-01-30T06:41:17.026Z,75.70
2019-01-30T06:43:45.456Z,75.50
2019-01-30T06:46:13.880Z,75.50
2019-01-30T06:48:42.314Z,75.40
2019-01-30T06:51:10.730Z,75.70
2019-01-30T06:53:39.162Z,75.90
2019-01-30T06:56:07.577Z,76.10
2019-01-30T06:58:36.009Z,75.90
2019-01-30T07:01:06.298Z,75.60
2019-01-30T07:03:34.774Z,75.00
2019-01-30T07:06:03.177Z,74.50
2019-01-30T07:08:31.666Z,74.20
2019-01-30T07:11:10.123Z,74.40
2019-01-30T07:13:30.441Z,74.20
2019-01-30T07:15:58.877Z,74.10
2019-01-30T07:18:27.292Z,73.90
2019-01-30T07:20:55.806Z,74.00
2019-01-30T07:23:24.236Z,74.20
2019-01-30T07:25:52.662Z,73.60
2019-01-30T07:28:21.104Z,73.70
2019-01-30T07:30:49.518Z,74.00
2019-01-30T07:33:18.108Z,74.30
2019-01-30T07:35:46.555Z,74.70
2019-01-30T07:38:14.956Z,75.00
2019-01-30T07:40:43.468Z,75.30
2019-01-30T07:43:11.906Z,75.30
2019-01-30T07:45:40.409Z,75.00
2019-01-30T07:48:08.843Z,75.10
2019-01-30T07:50:37.292Z,75.30
2019-01-30T07:53:05.829Z,75.10
2019-01-30T07:55:34.294Z,74.90
2019-01-30T07:58:02.709Z,74.90
2019-01-30T08:00:31.686Z,75.00
2019-01-30T08:03:00.338Z,75.10
2019-01-30T08:05:28.856Z,75.20
2019-01-30T08:07:57.364Z,75.30
2019-01-30T08:10:25.787Z,75.30
2019-01-30T08:12:54.275Z,75.50
2019-01-30T08:15:24.068Z,75.50
2019-01-30T08:17:52.720Z,75.50
2019-01-30T08:20:22.464Z,75.50
2019-01-30T08:22:51.217Z,75.80
2019-01-30T08:25:21.192Z,75.50
2019-01-30T08:27:50.303Z,75.70
2019-01-30T08:30:27.416Z,75.90
2019-01-30T08:33:04.306Z,75.80
2019-01-30T08:35:28.530Z,75.90
2019-01-30T08:37:57.123Z,75.90
2019-01-30T08:40:25.616Z,75.80
2019-01-30T08:42:54.030Z,75.70
2019-01-30T08:45:27.492Z,73.50
2019-01-30T08:47:56.056Z,72.60
2019-01-30T08:50:24.948Z,72.60
2019-01-30T08:52:53.522Z,71.60
2019-01-30T08:55:22.025Z,71.50
2019-01-30T08:57:50.456Z,71.30
2019-01-30T09:00:21.014Z,71.20
2019-01-30T09:02:49.500Z,71.20
2019-01-30T09:05:17.936Z,71.00
2019-01-30T09:07:46.358Z,70.10
2019-01-30T09:10:19.749Z,70.10
2019-01-30T09:12:48.259Z,70.30
2019-01-30T09:15:18.992Z,70.10
2019-01-30T09:17:47.580Z,70.10
2019-01-30T09:20:18.304Z,70.30
2019-01-30T09:22:46.850Z,69.80
2019-01-30T09:25:17.238Z,69.80
2019-01-30T09:27:45.716Z,69.80
2019-01-30T09:30:20.086Z,70.10
2019-01-30T09:32:48.587Z,69.90
2019-01-30T09:35:17.092Z,70.20
2019-01-30T09:37:45.612Z,70.00
2019-01-30T09:40:16.330Z,70.10
2019-01-30T09:42:45.740Z,70.40
2019-01-30T09:45:18.664Z,70.40
2019-01-30T09:47:47.132Z,70.50
2019-01-30T09:50:18.444Z,70.40
2019-01-30T09:52:47.010Z,70.60
2019-01-30T09:55:16.141Z,70.50
2019-01-30T09:57:44.689Z,70.40
2019-01-30T10:00:27.828Z,70.60
2019-01-30T10:02:56.249Z,70.10
2019-01-30T10:05:24.823Z,70.40
2019-01-30T10:07:55.296Z,70.50
2019-01-30T10:10:31.909Z,70.00
2019-01-30T10:13:00.495Z,69.40
2019-01-30T10:15:34.448Z,67.90
2019-01-30T10:18:02.957Z,67.60
2019-01-30T10:20:32.820Z,67.20
2019-01-30T10:23:01.259Z,66.80
2019-01-30T10:25:29.664Z,66.20
2019-01-30T10:27:58.237Z,66.00
2019-01-30T10:30:29.470Z,65.90
2019-01-30T10:32:57.968Z,64.70
2019-01-30T10:35:26.629Z,63.80
2019-01-30T10:37:55.260Z,63.30
2019-01-30T10:40:23.788Z,62.60
2019-01-30T10:42:53.068Z,62.60
2019-01-30T10:45:22.129Z,61.10
2019-01-30T10:47:50.567Z,61.40
2019-01-30T10:50:21.700Z,61.20
2019-01-30T10:52:50.281Z,61.20
2019-01-30T10:55:21.141Z,61.30
2019-01-30T10:57:51.126Z,61.50
2019-01-30T11:00:21.688Z,61.80
2019-01-30T11:02:50.141Z,62.10
2019-01-30T11:05:18.865Z,62.00
2019-01-30T11:07:47.391Z,62.50
2019-01-30T11:10:18.316Z,63.20
2019-01-30T11:12:46.830Z,64.70
2019-01-30T11:15:17.794Z,64.60
2019-01-30T11:17:46.378Z,64.80
2019-01-30T11:20:17.261Z,65.00
2019-01-30T11:22:45.799Z,65.30
2019-01-30T11:25:32.289Z,65.30
2019-01-30T11:28:00.784Z,65.10
2019-01-30T11:30:29.352Z,64.90
2019-01-30T11:32:57.774Z,65.20
2019-01-30T11:35:26.281Z,64.50
2019-01-30T11:37:54.912Z,63.90
2019-01-30T11:40:23.993Z,63.50
2019-01-30T11:42:52.406Z,63.30
2019-01-30T11:45:26.247Z,63.80
2019-01-30T11:47:54.669Z,63.60
2019-01-30T11:50:23.107Z,63.90
2019-01-30T11:52:51.586Z,64.40
2019-01-30T11:55:20.165Z,65.00
2019-01-30T11:57:48.723Z,64.70
2019-01-30T12:00:27.633Z,64.20
2019-01-30T12:02:56.085Z,63.60
2019-01-30T12:05:24.580Z,63.80
2019-01-30T12:07:53.094Z,64.00
2019-01-30T12:10:21.622Z,64.30
2019-01-30T12:12:50.030Z,64.20
2019-01-30T12:15:23.702Z,64.40
2019-01-30T12:17:52.216Z,64.40
2019-01-30T12:20:20.732Z,64.60
2019-01-30T12:22:49.557Z,64.40
2019-01-30T12:25:21.931Z,64.80
2019-01-30T12:27:51.069Z,64.90
2019-01-30T12:30:28.645Z,65.00
2019-01-30T12:32:57.159Z,65.10
2019-01-30T12:35:25.825Z,65.80
2019-01-30T12:37:54.271Z,65.70
2019-01-30T12:40:24.109Z,65.60
2019-01-30T12:42:52.917Z,65.80
2019-01-30T12:45:32.793Z,65.10
2019-01-30T12:48:01.355Z,64.40
2019-01-30T12:50:30.117Z,63.70
2019-01-30T12:52:58.617Z,62.80
2019-01-30T12:55:29.380Z,62.80
2019-01-30T12:57:57.581Z,61.90
2019-01-30T13:00:37.519Z,60.60
2019-01-30T13:03:06.104Z,60.40
2019-01-30T13:05:35.381Z,59.70
2019-01-30T13:08:04.054Z,60.70
2019-01-30T13:10:32.553Z,61.60
2019-01-30T13:13:01.018Z,62.20
2019-01-30T13:15:30.284Z,62.70
2019-01-30T13:17:59.068Z,63.40
2019-01-30T13:20:27.619Z,64.70
2019-01-30T13:22:56.068Z,66.30
2019-01-30T13:25:27.030Z,67.50
2019-01-30T13:27:55.568Z,68.30
2019-01-30T13:30:29.503Z,68.80
2019-01-30T13:32:58.036Z,68.70
2019-01-30T13:35:26.545Z,68.40
2019-01-30T13:37:54.974Z,68.50
2019-01-30T13:40:28.401Z,69.10
2019-01-30T13:42:56.908Z,68.60
2019-01-30T13:45:25.669Z,68.30
2019-01-30T13:47:54.195Z,68.80
2019-01-30T13:50:24.694Z,69.30
2019-01-30T13:52:53.394Z,68.90
2019-01-30T13:55:21.947Z,68.70
2019-01-30T13:57:50.567Z,68.50
2019-01-30T14:00:24.781Z,67.50
2019-01-30T14:02:53.330Z,65.80
2019-01-30T14:05:21.835Z,66.50
2019-01-30T14:07:50.521Z,66.80
2019-01-30T14:10:19.230Z,66.30
2019-01-30T14:12:47.739Z,65.70
2019-01-30T14:15:21.369Z,64.00
2019-01-30T14:17:50.041Z,63.70
2019-01-30T14:20:18.924Z,64.30
2019-01-30T14:22:47.646Z,65.70
2019-01-30T14:25:16.718Z,67.10
2019-01-30T14:27:45.226Z,68.70
2019-01-30T14:30:16.788Z,69.90
2019-01-30T14:32:45.311Z,70.60
2019-01-30T14:35:13.849Z,70.90
2019-01-30T14:37:42.452Z,71.00
2019-01-30T14:40:19.637Z,71.90
2019-01-30T14:42:48.085Z,73.70
2019-01-30T14:45:18.380Z,75.40
2019-01-30T14:47:49.279Z,75.40
2019-01-30T14:50:21.971Z,75.80
2019-01-30T14:52:50.526Z,76.20
2019-01-30T14:55:19.231Z,76.80
2019-01-30T14:57:48.275Z,77.10
2019-01-30T15:00:21.645Z,77.30
2019-01-30T15:02:50.284Z,77.50
2019-01-30T15:05:22.528Z,77.90
2019-01-30T15:07:50.896Z,78.10
2019-01-30T15:10:21.337Z,79.00
2019-01-30T15:12:50.105Z,80.50
2019-01-30T15:15:26.580Z,81.40
2019-01-30T15:17:55.117Z,82.70
2019-01-30T15:20:28.967Z,83.90
2019-01-30T15:22:57.639Z,85.10
2019-01-30T15:25:27.014Z,86.80
2019-01-30T15:27:55.700Z,87.90
2019-01-30T15:30:27.015Z,88.80
2019-01-30T15:32:55.703Z,89.20
2019-01-30T15:35:33.332Z,89.90
2019-01-30T15:37:54.517Z,90.40
2019-01-30T15:40:25.812Z,90.60
2019-01-30T15:42:54.281Z,90.50
2019-01-30T15:45:24.556Z,90.60
2019-01-30T15:47:53.320Z,90.70
2019-01-30T15:50:24.112Z,90.60
2019-01-30T15:52:53.179Z,90.70
2019-01-30T15:55:21.774Z,90.70
2019-01-30T15:57:56.107Z,90.60
2019-01-30T16:00:29.523Z,90.70
2019-01-30T16:02:58.048Z,90.60
2019-01-30T16:05:26.713Z,90.50
2019-01-30T16:07:55.223Z,90.40
2019-01-30T16:10:23.770Z,90.40
2019-01-30T16:12:52.210Z,90.30
2019-01-30T16:15:29.478Z,90.50
2019-01-30T16:17:57.999Z,90.50
2019-01-30T16:20:26.701Z,90.50
2019-01-30T16:22:55.142Z,90.50
2019-01-30T16:25:23.725Z,90.60
2019-01-30T16:27:52.169Z,90.60
2019-01-30T16:30:25.460Z,90.80
2019-01-30T16:32:54.206Z,90.90
2019-01-30T16:35:27.987Z,90.90
2019-01-30T16:37:56.480Z,90.90
2019-01-30T16:40:25.030Z,90.90
2019-01-30T16:42:54.451Z,90.90
2019-01-30T16:45:28.420Z,90.80
2019-01-30T16:47:56.859Z,90.80
2019-01-30T16:50:25.318Z,90.80
2019-01-30T16:52:54.108Z,90.90
2019-01-30T16:55:22.783Z,90.80
2019-01-30T16:57:51.765Z,90.80
2019-01-30T17:00:23.468Z,90.80
2019-01-30T17:02:51.985Z,90.70
2019-01-30T17:05:20.670Z,90.70
2019-01-30T17:07:49.140Z,90.40
2019-01-30T17:10:19.102Z,90.40
2019-01-30T17:12:47.634Z,90.40
2019-01-30T17:15:18.846Z,90.70
2019-01-30T17:17:47.342Z,90.20
2019-01-30T17:20:18.486Z,89.10
2019-01-30T17:22:47.032Z,89.20
2019-01-30T17:25:16.113Z,88.00
2019-01-30T17:27:44.573Z,87.40
2019-01-30T17:30:21.658Z,87.40
2019-01-30T17:32:50.179Z,87.20
2019-01-30T17:35:18.664Z,86.90
2019-01-30T17:37:47.175Z,86.70
2019-01-30T17:40:20.801Z,86.00
2019-01-30T17:42:49.377Z,85.90
2019-01-30T17:45:17.946Z,85.50
2019-01-30T17:47:46.752Z,85.40
2019-01-30T17:50:18.293Z,85.50
2019-01-30T17:52:46.969Z,85.70
2019-01-30T17:55:15.555Z,86.20
2019-01-30T17:57:44.133Z,86.60
2019-01-30T18:00:17.275Z,86.80
2019-01-30T18:02:45.775Z,86.90
2019-01-30T18:05:14.369Z,87.10
2019-01-30T18:07:42.927Z,87.50
2019-01-30T18:10:13.787Z,87.30
2019-01-30T18:12:42.189Z,87.40
2019-01-30T18:15:14.576Z,87.50
2019-01-30T18:17:43.016Z,86.00
2019-01-30T18:20:16.700Z,85.60
2019-01-30T18:22:45.455Z,85.50
2019-01-30T18:25:16.015Z,84.40
2019-01-30T18:27:44.614Z,83.80
2019-01-30T18:30:15.729Z,83.90
2019-01-30T18:32:45.173Z,83.00
2019-01-30T18:35:14.399Z,81.70
2019-01-30T18:37:42.963Z,80.60
2019-01-30T18:40:14.396Z,80.80
2019-01-30T18:42:43.276Z,80.30
2019-01-30T18:45:17.362Z,79.50
2019-01-30T18:47:45.826Z,77.90
2019-01-30T18:50:17.415Z,76.90
2019-01-30T18:52:46.013Z,77.10
2019-01-30T18:55:14.992Z,77.20
2019-01-30T18:57:43.637Z,76.70
2019-01-30T19:00:29.578Z,76.20
2019-01-30T19:02:59.563Z,76.50
2019-01-30T19:05:29.114Z,76.60
2019-01-30T19:07:57.712Z,76.40
2019-01-30T19:10:26.409Z,76.60
2019-01-30T19:12:55.073Z,76.50
2019-01-30T19:15:27.964Z,76.50
2019-01-30T19:17:56.691Z,76.20
2019-01-30T19:20:36.956Z,76.60
2019-01-30T19:23:07.091Z,76.40
2019-01-30T19:25:35.890Z,76.30
2019-01-30T19:28:05.297Z,76.40
2019-01-30T19:30:33.872Z,76.80
2019-01-30T19:33:02.631Z,77.20
2019-01-30T19:35:31.189Z,77.80
2019-01-30T19:37:59.778Z,77.90
2019-01-30T19:40:28.347Z,78.40
2019-01-30T19:42:57.019Z,78.70
2019-01-30T19:45:27.290Z,79.00
2019-01-30T19:47:55.975Z,79.20
2019-01-30T19:50:30.088Z,79.40
2019-01-30T19:52:59.296Z,79.50
2019-01-30T19:55:28.084Z,79.40
2019-01-30T19:57:57.037Z,79.50
2019-01-30T20:00:28.465Z,78.70
2019-01-30T20:02:57.091Z,78.90
2019-01-30T20:05:25.741Z,79.00
2019-01-30T20:07:54.425Z,79.00
2019-01-30T20:10:28.317Z,78.50
2019-01-30T20:12:56.957Z,78.00
2019-01-30T20:15:25.732Z,77.80
2019-01-30T20:17:54.233Z,77.50
2019-01-30T20:20:22.908Z,77.40
2019-01-30T20:22:51.551Z,76.50
2019-01-30T20:25:25.861Z,76.20
2019-01-30T20:27:54.729Z,76.20
2019-01-30T20:30:24.820Z,75.60
2019-01-30T20:32:53.557Z,75.20
2019-01-30T20:35:22.331Z,75.30
2019-01-30T20:37:50.971Z,74.50
2019-01-30T20:40:24.635Z,74.10
2019-01-30T20:42:53.531Z,74.20
2019-01-30T20:45:33.028Z,74.20
2019-01-30T20:47:52.709Z,73.70
2019-01-30T20:50:27.009Z,74.50
2019-01-30T20:52:55.705Z,73.80
2019-01-30T20:55:24.579Z,73.70
2019-01-30T20:57:53.297Z,73.50
2019-01-30T21:00:35.271Z,73.50
2019-01-30T21:03:03.659Z,73.40
2019-01-30T21:05:32.386Z,73.60
2019-01-30T21:08:01.190Z,73.50
2019-01-30T21:10:32.428Z,73.50
2019-01-30T21:13:01.072Z,73.80
2019-01-30T21:15:29.995Z,73.70
2019-01-30T21:17:58.547Z,73.50
2019-01-30T21:20:27.141Z,73.20
2019-01-30T21:22:55.637Z,73.20
2019-01-30T21:25:24.307Z,73.30
2019-01-30T21:27:52.936Z,73.50
2019-01-30T21:30:26.660Z,73.50
2019-01-30T21:32:55.267Z,73.50
2019-01-30T21:35:23.842Z,73.70
2019-01-30T21:37:52.477Z,74.00
2019-01-30T21:40:20.980Z,74.10
2019-01-30T21:42:49.488Z,74.20
2019-01-30T21:45:22.730Z,74.40
2019-01-30T21:47:51.304Z,74.90
2019-01-30T21:50:20.185Z,75.30
2019-01-30T21:52:48.813Z,75.50
2019-01-30T21:55:24.813Z,75.60
2019-01-30T21:57:53.352Z,76.20
2019-01-30T22:00:23.813Z,76.60
2019-01-30T22:02:52.416Z,76.90
2019-01-30T22:05:21.022Z,76.90
2019-01-30T22:08:00.152Z,76.90
2019-01-30T22:10:24.787Z,77.10
2019-01-30T22:12:53.289Z,77.00
2019-01-30T22:15:21.893Z,77.10
2019-01-30T22:17:50.413Z,77.00
2019-01-30T22:20:20.883Z,77.00
2019-01-30T22:22:49.565Z,77.30
2019-01-30T22:25:20.803Z,77.00
2019-01-30T22:27:49.529Z,77.10
2019-01-30T22:30:23.582Z,77.00
2019-01-30T22:32:52.137Z,76.80
2019-01-30T22:35:20.869Z,76.70
2019-01-30T22:37:49.288Z,76.40
2019-01-30T22:40:17.868Z,76.20
2019-01-30T22:42:46.306Z,75.80
2019-01-30T22:45:17.282Z,75.70
2019-01-30T22:47:45.794Z,75.70
2019-01-30T22:50:15.992Z,75.50
2019-01-30T22:52:44.489Z,75.40
2019-01-30T22:55:18.092Z,75.40
2019-01-30T22:57:46.671Z,75.40
2019-01-30T23:00:31.347Z,75.30
2019-01-30T23:03:00.031Z,75.20
2019-01-30T23:05:31.535Z,75.40
2019-01-30T23:08:00.055Z,75.30
2019-01-30T23:10:43.228Z,75.20
2019-01-30T23:13:14.738Z,75.20
2019-01-30T23:15:48.906Z,75.10
2019-01-30T23:18:37.561Z,75.40
2019-01-30T23:21:20.944Z,75.70
2019-01-30T23:24:11.493Z,75.80
2019-01-30T23:26:43.021Z,75.90
2019-01-30T23:29:20.536Z,75.70
2019-01-30T23:32:06.782Z,75.30
2019-01-30T23:34:49.931Z,75.50
2019-01-30T23:37:24.348Z,75.80
2019-01-30T23:40:07.445Z,75.90
2019-01-30T23:42:38.975Z,76.30
2019-01-30T23:45:13.401Z,76.10
2019-01-30T23:47:53.653Z,76.00
2019-01-30T23:50:27.879Z,75.40
2019-01-30T23:53:05.142Z,75.80
2019-01-30T23:55:39.281Z,75.60
2019-01-30T23:58:27.381Z,75.10
